sensor_id;sensor_type;location;lat;lon;timestamp;P1;durP1;ratioP1;P2;durP2;ratioP2
32228;SDS011;18717;48.034;11.186;2023-07-24T00:02:06;22.80;;;19.48;;
32228;SDS011;18717;48.034;11.186;2023-07-24T00:04:34;21.13;;;18.92;;
32228;SDS011;18717;48.034;11.186;2023-07-24T00:07:01;21.38;;;19.08;;
32228;SDS011;18717;48.034;11.186;2023-07-24T00:09:29;20.38;;;18.20;;
32228;SDS011;18717;48.034;11.186;2023-07-24T00:11:57;23.48;;;18.52;;
32228;SDS011;18717;48.034;11.186;2023-07-24T00:14:25;21.00;;;19.00;;
32228;SDS011;18717;48.034;11.186;2023-07-24T00:16:54;20.65;;;18.13;;
32228;SDS011;18717;48.034;11.186;2023-07-24T00:19:22;25.20;;;19.10;;
32228;SDS011;18717;48.034;11.186;2023-07-24T00:21:50;21.70;;;18.60;;
32228;SDS011;18717;48.034;11.186;2023-07-24T00:24:17;22.60;;;18.88;;
32228;SDS011;18717;48.034;11.186;2023-07-24T00:26:45;23.00;;;19.05;;
32228;SDS011;18717;48.034;11.186;2023-07-24T00:29:13;20.38;;;18.25;;
32228;SDS011;18717;48.034;11.186;2023-07-24T00:31:41;21.80;;;18.75;;
32228;SDS011;18717;48.034;11.186;2023-07-24T00:34:10;31.10;;;19.40;;
32228;SDS011;18717;48.034;11.186;2023-07-24T00:36:38;19.83;;;17.80;;
32228;SDS011;18717;48.034;11.186;2023-07-24T00:39:05;22.50;;;18.17;;
32228;SDS011;18717;48.034;11.186;2023-07-24T00:41:33;19.80;;;17.80;;
32228;SDS011;18717;48.034;11.186;2023-07-24T00:44:01;21.15;;;18.27;;
32228;SDS011;18717;48.034;11.186;2023-07-24T00:46:29;22.00;;;18.77;;
32228;SDS011;18717;48.034;11.186;2023-07-24T00:48:59;19.13;;;17.13;;
32228;SDS011;18717;48.034;11.186;2023-07-24T00:51:29;22.02;;;19.73;;
32228;SDS011;18717;48.034;11.186;2023-07-24T00:53:58;20.13;;;18.02;;
32228;SDS011;18717;48.034;11.186;2023-07-24T00:56:28;23.00;;;18.20;;
32228;SDS011;18717;48.034;11.186;2023-07-24T00:58:57;25.00;;;19.48;;
32228;SDS011;18717;48.034;11.186;2023-07-24T01:01:25;19.92;;;17.92;;
32228;SDS011;18717;48.034;11.186;2023-07-24T01:03:53;20.65;;;18.55;;
32228;SDS011;18717;48.034;11.186;2023-07-24T01:06:21;23.23;;;18.52;;
32228;SDS011;18717;48.034;11.186;2023-07-24T01:08:50;20.40;;;18.13;;
32228;SDS011;18717;48.034;11.186;2023-07-24T01:11:19;22.45;;;18.20;;
32228;SDS011;18717;48.034;11.186;2023-07-24T01:13:48;22.50;;;18.52;;
32228;SDS011;18717;48.034;11.186;2023-07-24T01:16:19;20.02;;;17.95;;
32228;SDS011;18717;48.034;11.186;2023-07-24T01:18:49;23.27;;;19.13;;
32228;SDS011;18717;48.034;11.186;2023-07-24T01:21:20;23.35;;;18.58;;
32228;SDS011;18717;48.034;11.186;2023-07-24T01:23:58;20.27;;;18.38;;
32228;SDS011;18717;48.034;11.186;2023-07-24T01:26:28;20.95;;;18.38;;
32228;SDS011;18717;48.034;11.186;2023-07-24T01:28:56;21.40;;;18.70;;
32228;SDS011;18717;48.034;11.186;2023-07-24T01:31:24;24.15;;;18.67;;
32228;SDS011;18717;48.034;11.186;2023-07-24T01:33:52;22.52;;;18.48;;
32228;SDS011;18717;48.034;11.186;2023-07-24T01:36:19;21.75;;;18.17;;
32228;SDS011;18717;48.034;11.186;2023-07-24T01:38:48;20.45;;;18.30;;
32228;SDS011;18717;48.034;11.186;2023-07-24T01:41:15;20.10;;;17.95;;
32228;SDS011;18717;48.034;11.186;2023-07-24T01:43:45;23.08;;;19.05;;
32228;SDS011;18717;48.034;11.186;2023-07-24T01:46:13;20.33;;;17.80;;
32228;SDS011;18717;48.034;11.186;2023-07-24T01:48:41;24.80;;;19.02;;
32228;SDS011;18717;48.034;11.186;2023-07-24T01:51:08;20.67;;;18.58;;
32228;SDS011;18717;48.034;11.186;2023-07-24T01:53:36;21.98;;;18.40;;
32228;SDS011;18717;48.034;11.186;2023-07-24T01:56:04;19.90;;;17.77;;
32228;SDS011;18717;48.034;11.186;2023-07-24T01:58:32;20.35;;;18.23;;
32228;SDS011;18717;48.034;11.186;2023-07-24T02:01:01;21.40;;;17.42;;
32228;SDS011;18717;48.034;11.186;2023-07-24T02:03:29;24.00;;;19.02;;
32228;SDS011;18717;48.034;11.186;2023-07-24T02:05:57;21.30;;;19.17;;
32228;SDS011;18717;48.034;11.186;2023-07-24T02:08:24;21.50;;;18.27;;
32228;SDS011;18717;48.034;11.186;2023-07-24T02:10:52;21.00;;;18.90;;
32228;SDS011;18717;48.034;11.186;2023-07-24T02:13:20;20.27;;;17.33;;
32228;SDS011;18717;48.034;11.186;2023-07-24T02:15:48;22.20;;;19.77;;
32228;SDS011;18717;48.034;11.186;2023-07-24T02:18:17;19.23;;;17.23;;
32228;SDS011;18717;48.034;11.186;2023-07-24T02:20:48;19.75;;;17.70;;
32228;SDS011;18717;48.034;11.186;2023-07-24T02:23:16;21.13;;;18.25;;
32228;SDS011;18717;48.034;11.186;2023-07-24T02:25:44;21.55;;;18.40;;
32228;SDS011;18717;48.034;11.186;2023-07-24T02:28:12;20.08;;;17.95;;
32228;SDS011;18717;48.034;11.186;2023-07-24T02:30:40;20.60;;;18.50;;
32228;SDS011;18717;48.034;11.186;2023-07-24T02:33:07;19.83;;;17.85;;
32228;SDS011;18717;48.034;11.186;2023-07-24T02:35:39;20.13;;;18.10;;
32228;SDS011;18717;48.034;11.186;2023-07-24T02:38:07;18.92;;;17.10;;
32228;SDS011;18717;48.034;11.186;2023-07-24T02:40:35;19.67;;;17.67;;
32228;SDS011;18717;48.034;11.186;2023-07-24T02:43:03;20.10;;;17.88;;
32228;SDS011;18717;48.034;11.186;2023-07-24T02:45:33;21.38;;;19.17;;
32228;SDS011;18717;48.034;11.186;2023-07-24T02:48:01;24.65;;;17.63;;
32228;SDS011;18717;48.034;11.186;2023-07-24T02:50:29;22.38;;;19.20;;
32228;SDS011;18717;48.034;11.186;2023-07-24T02:52:58;23.23;;;17.70;;
32228;SDS011;18717;48.034;11.186;2023-07-24T02:55:26;20.77;;;18.55;;
32228;SDS011;18717;48.034;11.186;2023-07-24T02:57:54;21.40;;;19.25;;
32228;SDS011;18717;48.034;11.186;2023-07-24T03:00:22;20.80;;;18.63;;
32228;SDS011;18717;48.034;11.186;2023-07-24T03:02:50;20.38;;;18.38;;
32228;SDS011;18717;48.034;11.186;2023-07-24T03:05:18;22.23;;;19.23;;
32228;SDS011;18717;48.034;11.186;2023-07-24T03:07:45;22.58;;;19.95;;
32228;SDS011;18717;48.034;11.186;2023-07-24T03:10:14;22.70;;;19.52;;
32228;SDS011;18717;48.034;11.186;2023-07-24T03:12:42;23.70;;;20.08;;
32228;SDS011;18717;48.034;11.186;2023-07-24T03:15:10;24.90;;;20.90;;
32228;SDS011;18717;48.034;11.186;2023-07-24T03:17:38;21.65;;;19.30;;
32228;SDS011;18717;48.034;11.186;2023-07-24T03:20:09;27.25;;;19.45;;
32228;SDS011;18717;48.034;11.186;2023-07-24T03:22:37;25.67;;;20.27;;
32228;SDS011;18717;48.034;11.186;2023-07-24T03:25:05;22.70;;;19.30;;
32228;SDS011;18717;48.034;11.186;2023-07-24T03:27:35;21.70;;;18.40;;
32228;SDS011;18717;48.034;11.186;2023-07-24T03:30:03;25.02;;;19.08;;
32228;SDS011;18717;48.034;11.186;2023-07-24T03:32:31;24.70;;;19.35;;
32228;SDS011;18717;48.034;11.186;2023-07-24T03:34:59;27.67;;;21.50;;
32228;SDS011;18717;48.034;11.186;2023-07-24T03:37:27;28.98;;;19.92;;
32228;SDS011;18717;48.034;11.186;2023-07-24T03:39:55;23.30;;;19.20;;
32228;SDS011;18717;48.034;11.186;2023-07-24T03:42:26;21.35;;;19.08;;
32228;SDS011;18717;48.034;11.186;2023-07-24T03:44:56;20.52;;;18.27;;
32228;SDS011;18717;48.034;11.186;2023-07-24T03:47:24;23.73;;;19.52;;
32228;SDS011;18717;48.034;11.186;2023-07-24T03:49:52;24.92;;;19.52;;
32228;SDS011;18717;48.034;11.186;2023-07-24T03:52:21;21.77;;;18.77;;
32228;SDS011;18717;48.034;11.186;2023-07-24T03:54:49;21.55;;;18.42;;
32228;SDS011;18717;48.034;11.186;2023-07-24T03:57:18;22.35;;;19.52;;
32228;SDS011;18717;48.034;11.186;2023-07-24T03:59:46;22.83;;;19.08;;
32228;SDS011;18717;48.034;11.186;2023-07-24T04:02:15;20.70;;;17.70;;
32228;SDS011;18717;48.034;11.186;2023-07-24T04:04:43;22.55;;;18.38;;
32228;SDS011;18717;48.034;11.186;2023-07-24T04:07:10;21.02;;;18.73;;
32228;SDS011;18717;48.034;11.186;2023-07-24T04:09:39;21.08;;;18.67;;
32228;SDS011;18717;48.034;11.186;2023-07-24T04:12:07;20.92;;;18.23;;
32228;SDS011;18717;48.034;11.186;2023-07-24T04:14:35;21.42;;;18.55;;
32228;SDS011;18717;48.034;11.186;2023-07-24T04:17:03;21.45;;;19.13;;
32228;SDS011;18717;48.034;11.186;2023-07-24T04:19:33;21.65;;;18.38;;
32228;SDS011;18717;48.034;11.186;2023-07-24T04:22:01;24.90;;;19.50;;
32228;SDS011;18717;48.034;11.186;2023-07-24T04:24:29;23.55;;;18.98;;
32228;SDS011;18717;48.034;11.186;2023-07-24T04:26:57;23.35;;;19.17;;
32228;SDS011;18717;48.034;11.186;2023-07-24T04:29:26;21.17;;;18.98;;
32228;SDS011;18717;48.034;11.186;2023-07-24T04:31:53;21.23;;;18.58;;
32228;SDS011;18717;48.034;11.186;2023-07-24T04:34:31;22.40;;;19.40;;
32228;SDS011;18717;48.034;11.186;2023-07-24T04:37:08;21.15;;;18.90;;
32228;SDS011;18717;48.034;11.186;2023-07-24T04:39:49;22.77;;;19.63;;
32228;SDS011;18717;48.034;11.186;2023-07-24T04:42:27;22.55;;;18.75;;
32228;SDS011;18717;48.034;11.186;2023-07-24T04:44:57;22.40;;;18.17;;
32228;SDS011;18717;48.034;11.186;2023-07-24T05:13:53;20.08;;;17.98;;
32228;SDS011;18717;48.034;11.186;2023-07-24T05:24:35;20.48;;;18.38;;
32228;SDS011;18717;48.034;11.186;2023-07-24T05:31:18;22.33;;;19.55;;
32228;SDS011;18717;48.034;11.186;2023-07-24T05:37:57;21.25;;;18.85;;
32228;SDS011;18717;48.034;11.186;2023-07-24T05:41:06;19.88;;;17.77;;
32228;SDS011;18717;48.034;11.186;2023-07-24T05:44:59;20.98;;;18.88;;
32228;SDS011;18717;48.034;11.186;2023-07-24T05:48:01;21.13;;;18.92;;
32228;SDS011;18717;48.034;11.186;2023-07-24T05:51:03;20.20;;;18.05;;
32228;SDS011;18717;48.034;11.186;2023-07-24T05:57:15;20.73;;;18.60;;
32228;SDS011;18717;48.034;11.186;2023-07-24T06:07:02;22.05;;;19.85;;
32228;SDS011;18717;48.034;11.186;2023-07-24T06:21:35;20.45;;;18.38;;
32228;SDS011;18717;48.034;11.186;2023-07-24T06:27:55;21.23;;;19.00;;
32228;SDS011;18717;48.034;11.186;2023-07-24T07:16:40;25.48;;;20.30;;
32228;SDS011;18717;48.034;11.186;2023-07-24T07:19:10;21.92;;;19.75;;
32228;SDS011;18717;48.034;11.186;2023-07-24T07:21:50;21.33;;;19.25;;
32228;SDS011;18717;48.034;11.186;2023-07-24T07:24:30;22.23;;;19.35;;
32228;SDS011;18717;48.034;11.186;2023-07-24T07:27:16;20.70;;;18.70;;
32228;SDS011;18717;48.034;11.186;2023-07-24T07:30:04;22.60;;;18.80;;
32228;SDS011;18717;48.034;11.186;2023-07-24T07:32:42;21.27;;;19.08;;
32228;SDS011;18717;48.034;11.186;2023-07-24T07:35:12;22.02;;;19.60;;
32228;SDS011;18717;48.034;11.186;2023-07-24T07:38:01;20.42;;;18.25;;
32228;SDS011;18717;48.034;11.186;2023-07-24T07:43:40;20.40;;;18.33;;
32228;SDS011;18717;48.034;11.186;2023-07-24T07:46:33;20.70;;;18.67;;
32228;SDS011;18717;48.034;11.186;2023-07-24T07:49:34;19.33;;;17.33;;
32228;SDS011;18717;48.034;11.186;2023-07-24T07:52:06;18.98;;;16.95;;
32228;SDS011;18717;48.034;11.186;2023-07-24T07:55:02;19.92;;;17.70;;
32228;SDS011;18717;48.034;11.186;2023-07-24T07:58:25;18.98;;;17.17;;
32228;SDS011;18717;48.034;11.186;2023-07-24T08:03:03;18.83;;;17.10;;
32228;SDS011;18717;48.034;11.186;2023-07-24T08:05:37;18.27;;;16.58;;
32228;SDS011;18717;48.034;11.186;2023-07-24T08:16:28;18.73;;;17.05;;
32228;SDS011;18717;48.034;11.186;2023-07-24T08:50:00;18.75;;;16.83;;
32228;SDS011;18717;48.034;11.186;2023-07-24T08:52:49;19.10;;;17.20;;
32228;SDS011;18717;48.034;11.186;2023-07-24T08:55:37;19.73;;;17.83;;
32228;SDS011;18717;48.034;11.186;2023-07-24T08:59:02;18.90;;;17.02;;
32228;SDS011;18717;48.034;11.186;2023-07-24T09:01:30;17.73;;;16.13;;
32228;SDS011;18717;48.034;11.186;2023-07-24T09:04:11;19.05;;;17.35;;
32228;SDS011;18717;48.034;11.186;2023-07-24T09:14:09;18.83;;;17.00;;
32228;SDS011;18717;48.034;11.186;2023-07-24T09:32:39;17.83;;;16.23;;
32228;SDS011;18717;48.034;11.186;2023-07-24T09:38:48;16.17;;;14.88;;
32228;SDS011;18717;48.034;11.186;2023-07-24T09:48:08;16.50;;;15.20;;
32228;SDS011;18717;48.034;11.186;2023-07-24T11:05:00;17.30;;;16.00;;
32228;SDS011;18717;48.034;11.186;2023-07-24T12:47:21;17.40;;;15.90;;
32228;SDS011;18717;48.034;11.186;2023-07-24T14:01:41;15.32;;;14.13;;
32228;SDS011;18717;48.034;11.186;2023-07-24T14:08:46;15.43;;;14.43;;
32228;SDS011;18717;48.034;11.186;2023-07-24T14:31:50;14.25;;;13.35;;
32228;SDS011;18717;48.034;11.186;2023-07-24T14:38:44;14.57;;;13.57;;
32228;SDS011;18717;48.034;11.186;2023-07-24T14:44:20;14.55;;;13.68;;
32228;SDS011;18717;48.034;11.186;2023-07-24T14:47:06;14.63;;;13.52;;
32228;SDS011;18717;48.034;11.186;2023-07-24T14:49:50;14.65;;;13.73;;
32228;SDS011;18717;48.034;11.186;2023-07-24T14:52:57;14.77;;;13.77;;
32228;SDS011;18717;48.034;11.186;2023-07-24T14:56:05;13.60;;;12.82;;
32228;SDS011;18717;48.034;11.186;2023-07-24T14:58:36;14.82;;;13.70;;
32228;SDS011;18717;48.034;11.186;2023-07-24T15:01:04;14.25;;;13.35;;
32228;SDS011;18717;48.034;11.186;2023-07-24T15:03:39;14.57;;;13.68;;
32228;SDS011;18717;48.034;11.186;2023-07-24T15:10:18;14.90;;;14.00;;
32228;SDS011;18717;48.034;11.186;2023-07-24T15:13:44;13.95;;;12.95;;
32228;SDS011;18717;48.034;11.186;2023-07-24T15:16:29;14.50;;;13.50;;
32228;SDS011;18717;48.034;11.186;2023-07-24T15:19:19;13.82;;;13.02;;
32228;SDS011;18717;48.034;11.186;2023-07-24T15:21:52;14.75;;;13.63;;
32228;SDS011;18717;48.034;11.186;2023-07-24T15:27:32;14.35;;;13.40;;
32228;SDS011;18717;48.034;11.186;2023-07-24T15:30:15;14.80;;;13.45;;
32228;SDS011;18717;48.034;11.186;2023-07-24T15:33:28;14.68;;;13.77;;
32228;SDS011;18717;48.034;11.186;2023-07-24T15:36:16;14.55;;;13.65;;
32228;SDS011;18717;48.034;11.186;2023-07-24T15:39:05;14.18;;;13.27;;
32228;SDS011;18717;48.034;11.186;2023-07-24T15:41:47;14.13;;;13.05;;
32228;SDS011;18717;48.034;11.186;2023-07-24T15:47:44;14.07;;;13.25;;
32228;SDS011;18717;48.034;11.186;2023-07-24T15:50:30;13.27;;;12.47;;
32228;SDS011;18717;48.034;11.186;2023-07-24T15:53:18;14.93;;;13.93;;
32228;SDS011;18717;48.034;11.186;2023-07-24T15:59:42;15.00;;;14.00;;
32228;SDS011;18717;48.034;11.186;2023-07-24T16:05:02;14.55;;;13.65;;
32228;SDS011;18717;48.034;11.186;2023-07-24T16:07:35;14.05;;;13.18;;
32228;SDS011;18717;48.034;11.186;2023-07-24T16:10:10;14.50;;;13.40;;
32228;SDS011;18717;48.034;11.186;2023-07-24T16:12:50;14.38;;;13.30;;
32228;SDS011;18717;48.034;11.186;2023-07-24T16:15:40;14.30;;;13.30;;
32228;SDS011;18717;48.034;11.186;2023-07-24T16:18:11;15.55;;;14.25;;
32228;SDS011;18717;48.034;11.186;2023-07-24T16:20:45;15.35;;;14.35;;
32228;SDS011;18717;48.034;11.186;2023-07-24T16:26:20;15.40;;;14.20;;
32228;SDS011;18717;48.034;11.186;2023-07-24T16:29:17;16.00;;;14.80;;
32228;SDS011;18717;48.034;11.186;2023-07-24T16:32:02;14.55;;;13.45;;
32228;SDS011;18717;48.034;11.186;2023-07-24T16:34:30;14.65;;;13.70;;
32228;SDS011;18717;48.034;11.186;2023-07-24T16:37:03;15.85;;;14.75;;
32228;SDS011;18717;48.034;11.186;2023-07-24T16:39:31;14.68;;;13.52;;
32228;SDS011;18717;48.034;11.186;2023-07-24T16:42:00;14.63;;;13.43;;
32228;SDS011;18717;48.034;11.186;2023-07-24T16:44:32;15.05;;;13.95;;
32228;SDS011;18717;48.034;11.186;2023-07-24T16:50:58;14.65;;;13.55;;
32228;SDS011;18717;48.034;11.186;2023-07-24T17:18:00;15.13;;;13.88;;
32228;SDS011;18717;48.034;11.186;2023-07-24T17:20:28;15.35;;;14.05;;
32228;SDS011;18717;48.034;11.186;2023-07-24T17:22:56;15.02;;;13.95;;
32228;SDS011;18717;48.034;11.186;2023-07-24T17:25:24;14.23;;;13.23;;
32228;SDS011;18717;48.034;11.186;2023-07-24T17:45:45;13.70;;;12.80;;
32228;SDS011;18717;48.034;11.186;2023-07-24T17:48:13;14.70;;;13.65;;
32228;SDS011;18717;48.034;11.186;2023-07-24T19:04:44;15.32;;;14.20;;
32228;SDS011;18717;48.034;11.186;2023-07-24T19:10:53;15.75;;;14.57;;
32228;SDS011;18717;48.034;11.186;2023-07-24T19:17:50;15.75;;;14.50;;
32228;SDS011;18717;48.034;11.186;2023-07-24T19:20:35;15.80;;;14.50;;
32228;SDS011;18717;48.034;11.186;2023-07-24T19:34:35;16.10;;;14.60;;
32228;SDS011;18717;48.034;11.186;2023-07-24T20:05:05;16.63;;;15.23;;
32228;SDS011;18717;48.034;11.186;2023-07-24T20:07:34;16.60;;;15.27;;
32228;SDS011;18717;48.034;11.186;2023-07-24T20:10:02;16.13;;;14.77;;
32228;SDS011;18717;48.034;11.186;2023-07-24T20:12:29;16.67;;;15.13;;
32228;SDS011;18717;48.034;11.186;2023-07-24T20:14:57;16.15;;;14.57;;
32228;SDS011;18717;48.034;11.186;2023-07-24T20:17:25;16.20;;;14.80;;
32228;SDS011;18717;48.034;11.186;2023-07-24T20:19:53;15.63;;;14.15;;
32228;SDS011;18717;48.034;11.186;2023-07-24T20:22:22;16.85;;;15.55;;
32228;SDS011;18717;48.034;11.186;2023-07-24T20:24:49;15.25;;;14.13;;
32228;SDS011;18717;48.034;11.186;2023-07-24T20:27:17;16.17;;;14.70;;
32228;SDS011;18717;48.034;11.186;2023-07-24T20:29:45;15.73;;;14.18;;
32228;SDS011;18717;48.034;11.186;2023-07-24T20:32:12;15.75;;;14.45;;
32228;SDS011;18717;48.034;11.186;2023-07-24T20:34:40;15.23;;;13.70;;
32228;SDS011;18717;48.034;11.186;2023-07-24T20:37:08;14.98;;;13.98;;
32228;SDS011;18717;48.034;11.186;2023-07-24T20:39:37;15.00;;;13.70;;
32228;SDS011;18717;48.034;11.186;2023-07-24T20:42:05;15.52;;;14.40;;
32228;SDS011;18717;48.034;11.186;2023-07-24T20:44:36;14.90;;;13.63;;
32228;SDS011;18717;48.034;11.186;2023-07-24T20:47:04;15.75;;;14.38;;
32228;SDS011;18717;48.034;11.186;2023-07-24T20:49:34;15.75;;;14.25;;
32228;SDS011;18717;48.034;11.186;2023-07-24T20:52:02;16.02;;;14.82;;
32228;SDS011;18717;48.034;11.186;2023-07-24T20:54:30;15.25;;;14.05;;
32228;SDS011;18717;48.034;11.186;2023-07-24T20:56:59;16.02;;;14.73;;
32228;SDS011;18717;48.034;11.186;2023-07-24T20:59:27;16.30;;;14.82;;
32228;SDS011;18717;48.034;11.186;2023-07-24T21:01:55;16.00;;;14.57;;
32228;SDS011;18717;48.034;11.186;2023-07-24T21:04:23;14.63;;;13.52;;
32228;SDS011;18717;48.034;11.186;2023-07-24T21:06:51;15.63;;;14.52;;
32228;SDS011;18717;48.034;11.186;2023-07-24T21:09:19;16.42;;;14.93;;
32228;SDS011;18717;48.034;11.186;2023-07-24T21:11:46;16.30;;;14.75;;
32228;SDS011;18717;48.034;11.186;2023-07-24T21:14:15;15.07;;;13.88;;
32228;SDS011;18717;48.034;11.186;2023-07-24T21:16:43;16.10;;;14.82;;
32228;SDS011;18717;48.034;11.186;2023-07-24T21:19:11;15.88;;;14.57;;
32228;SDS011;18717;48.034;11.186;2023-07-24T21:21:39;15.10;;;13.90;;
32228;SDS011;18717;48.034;11.186;2023-07-24T21:24:06;15.43;;;14.18;;
32228;SDS011;18717;48.034;11.186;2023-07-24T21:26:34;15.35;;;14.25;;
32228;SDS011;18717;48.034;11.186;2023-07-24T21:29:02;15.23;;;14.13;;
32228;SDS011;18717;48.034;11.186;2023-07-24T21:31:32;15.20;;;14.18;;
32228;SDS011;18717;48.034;11.186;2023-07-24T21:34:00;15.88;;;14.52;;
32228;SDS011;18717;48.034;11.186;2023-07-24T21:36:27;15.48;;;14.25;;
32228;SDS011;18717;48.034;11.186;2023-07-24T21:38:55;14.77;;;13.57;;
32228;SDS011;18717;48.034;11.186;2023-07-24T21:41:23;15.50;;;14.43;;
32228;SDS011;18717;48.034;11.186;2023-07-24T21:43:54;15.70;;;14.38;;
32228;SDS011;18717;48.034;11.186;2023-07-24T21:46:21;15.55;;;14.32;;
32228;SDS011;18717;48.034;11.186;2023-07-24T21:48:51;16.08;;;14.40;;
32228;SDS011;18717;48.034;11.186;2023-07-24T21:51:19;16.13;;;14.50;;
32228;SDS011;18717;48.034;11.186;2023-07-24T21:53:46;14.90;;;13.75;;
32228;SDS011;18717;48.034;11.186;2023-07-24T21:56:14;14.70;;;13.50;;
32228;SDS011;18717;48.034;11.186;2023-07-24T21:58:42;13.85;;;12.95;;
32228;SDS011;18717;48.034;11.186;2023-07-24T22:01:10;15.68;;;14.55;;
32228;SDS011;18717;48.034;11.186;2023-07-24T22:03:37;14.73;;;13.65;;
32228;SDS011;18717;48.034;11.186;2023-07-24T22:06:06;15.23;;;14.15;;
32228;SDS011;18717;48.034;11.186;2023-07-24T22:08:34;14.88;;;13.88;;
32228;SDS011;18717;48.034;11.186;2023-07-24T22:11:07;15.05;;;13.98;;
32228;SDS011;18717;48.034;11.186;2023-07-24T22:13:36;14.35;;;13.30;;
32228;SDS011;18717;48.034;11.186;2023-07-24T22:16:03;15.60;;;14.40;;
32228;SDS011;18717;48.034;11.186;2023-07-24T22:18:31;15.43;;;14.27;;
32228;SDS011;18717;48.034;11.186;2023-07-24T22:20:59;14.65;;;13.68;;
32228;SDS011;18717;48.034;11.186;2023-07-24T22:23:28;14.50;;;13.38;;
32228;SDS011;18717;48.034;11.186;2023-07-24T22:25:56;15.13;;;13.75;;
32228;SDS011;18717;48.034;11.186;2023-07-24T22:28:24;15.48;;;14.27;;
32228;SDS011;18717;48.034;11.186;2023-07-24T22:30:51;14.82;;;13.68;;
32228;SDS011;18717;48.034;11.186;2023-07-24T22:33:19;13.90;;;12.77;;
32228;SDS011;18717;48.034;11.186;2023-07-24T22:35:47;15.00;;;13.80;;
32228;SDS011;18717;48.034;11.186;2023-07-24T22:38:15;13.82;;;12.82;;
32228;SDS011;18717;48.034;11.186;2023-07-24T22:40:44;13.77;;;12.82;;
32228;SDS011;18717;48.034;11.186;2023-07-24T22:43:11;14.43;;;13.52;;
32228;SDS011;18717;48.034;11.186;2023-07-24T22:45:39;14.18;;;13.07;;
32228;SDS011;18717;48.034;11.186;2023-07-24T22:48:07;13.65;;;12.65;;
32228;SDS011;18717;48.034;11.186;2023-07-24T22:50:34;13.88;;;12.98;;
32228;SDS011;18717;48.034;11.186;2023-07-24T22:53:02;15.90;;;14.60;;
32228;SDS011;18717;48.034;11.186;2023-07-24T22:55:30;14.48;;;13.35;;
32228;SDS011;18717;48.034;11.186;2023-07-24T22:57:59;14.48;;;13.38;;
32228;SDS011;18717;48.034;11.186;2023-07-24T23:00:27;14.23;;;13.27;;
32228;SDS011;18717;48.034;11.186;2023-07-24T23:02:54;15.60;;;14.40;;
32228;SDS011;18717;48.034;11.186;2023-07-24T23:05:22;14.80;;;13.50;;
32228;SDS011;18717;48.034;11.186;2023-07-24T23:07:50;14.38;;;13.32;;
32228;SDS011;18717;48.034;11.186;2023-07-24T23:10:21;14.43;;;13.15;;
32228;SDS011;18717;48.034;11.186;2023-07-24T23:12:49;14.25;;;13.15;;
32228;SDS011;18717;48.034;11.186;2023-07-24T23:15:18;13.50;;;12.55;;
32228;SDS011;18717;48.034;11.186;2023-07-24T23:17:46;14.40;;;13.23;;
32228;SDS011;18717;48.034;11.186;2023-07-24T23:20:13;14.75;;;13.65;;
32228;SDS011;18717;48.034;11.186;2023-07-24T23:22:41;14.77;;;13.57;;
32228;SDS011;18717;48.034;11.186;2023-07-24T23:25:09;13.90;;;12.65;;
32228;SDS011;18717;48.034;11.186;2023-07-24T23:27:36;14.27;;;13.25;;
32228;SDS011;18717;48.034;11.186;2023-07-24T23:30:05;13.95;;;12.70;;
32228;SDS011;18717;48.034;11.186;2023-07-24T23:32:35;14.00;;;12.90;;
32228;SDS011;18717;48.034;11.186;2023-07-24T23:35:03;13.57;;;12.70;;
32228;SDS011;18717;48.034;11.186;2023-07-24T23:37:31;13.93;;;12.82;;
32228;SDS011;18717;48.034;11.186;2023-07-24T23:39:58;13.95;;;13.05;;
32228;SDS011;18717;48.034;11.186;2023-07-24T23:42:26;13.23;;;12.43;;
32228;SDS011;18717;48.034;11.186;2023-07-24T23:44:54;13.98;;;13.07;;
32228;SDS011;18717;48.034;11.186;2023-07-24T23:47:21;13.88;;;12.88;;
32228;SDS011;18717;48.034;11.186;2023-07-24T23:49:50;13.77;;;12.70;;
32228;SDS011;18717;48.034;11.186;2023-07-24T23:52:19;14.35;;;13.30;;
32228;SDS011;18717;48.034;11.186;2023-07-24T23:54:47;14.20;;;13.07;;
32228;SDS011;18717;48.034;11.186;2023-07-24T23:57:14;13.52;;;12.65;;
32228;SDS011;18717;48.034;11.186;2023-07-24T23:59:42;14.25;;;13.15;;
